sensor_id;sensor_type;location;lat;lon;timestamp;P1;durP1;ratioP1;P2;durP2;ratioP2
16957;SDS011;8595;52.542;11.974;2023-07-31T00:01:23;3.78;;;3.10;;
16957;SDS011;8595;52.542;11.974;2023-07-31T00:03:50;8.90;;;3.67;;
16957;SDS011;8595;52.542;11.974;2023-07-31T00:06:16;6.38;;;3.47;;
16957;SDS011;8595;52.542;11.974;2023-07-31T00:08:43;9.00;;;3.80;;
16957;SDS011;8595;52.542;11.974;2023-07-31T00:11:10;6.43;;;3.78;;
16957;SDS011;8595;52.542;11.974;2023-07-31T00:13:38;5.38;;;3.65;;
16957;SDS011;8595;52.542;11.974;2023-07-31T00:16:05;8.32;;;3.90;;
16957;SDS011;8595;52.542;11.974;2023-07-31T00:18:32;11.18;;;4.93;;
16957;SDS011;8595;52.542;11.974;2023-07-31T00:20:59;4.13;;;3.72;;
16957;SDS011;8595;52.542;11.974;2023-07-31T00:23:26;9.63;;;4.88;;
16957;SDS011;8595;52.542;11.974;2023-07-31T00:25:52;8.35;;;5.05;;
16957;SDS011;8595;52.542;11.974;2023-07-31T00:28:19;4.72;;;3.60;;
16957;SDS011;8595;52.542;11.974;2023-07-31T00:30:47;6.28;;;4.53;;
16957;SDS011;8595;52.542;11.974;2023-07-31T00:33:14;6.95;;;4.38;;
16957;SDS011;8595;52.542;11.974;2023-07-31T00:35:41;8.23;;;4.00;;
16957;SDS011;8595;52.542;11.974;2023-07-31T00:38:08;6.47;;;3.88;;
16957;SDS011;8595;52.542;11.974;2023-07-31T00:40:35;6.10;;;3.92;;
16957;SDS011;8595;52.542;11.974;2023-07-31T00:43:02;8.13;;;4.45;;
16957;SDS011;8595;52.542;11.974;2023-07-31T00:45:29;9.23;;;4.35;;
16957;SDS011;8595;52.542;11.974;2023-07-31T00:47:58;6.25;;;3.50;;
16957;SDS011;8595;52.542;11.974;2023-07-31T00:50:26;9.80;;;5.05;;
16957;SDS011;8595;52.542;11.974;2023-07-31T00:52:54;7.45;;;4.13;;
16957;SDS011;8595;52.542;11.974;2023-07-31T00:55:21;9.88;;;4.78;;
16957;SDS011;8595;52.542;11.974;2023-07-31T00:57:48;7.90;;;4.95;;
16957;SDS011;8595;52.542;11.974;2023-07-31T01:00:15;14.02;;;5.22;;
16957;SDS011;8595;52.542;11.974;2023-07-31T01:02:42;8.75;;;4.80;;
16957;SDS011;8595;52.542;11.974;2023-07-31T01:05:10;9.80;;;5.50;;
16957;SDS011;8595;52.542;11.974;2023-07-31T01:07:39;8.48;;;5.28;;
16957;SDS011;8595;52.542;11.974;2023-07-31T01:10:11;7.88;;;5.35;;
16957;SDS011;8595;52.542;11.974;2023-07-31T01:12:42;9.73;;;5.25;;
16957;SDS011;8595;52.542;11.974;2023-07-31T01:15:11;8.43;;;4.88;;
16957;SDS011;8595;52.542;11.974;2023-07-31T01:17:40;10.63;;;4.75;;
16957;SDS011;8595;52.542;11.974;2023-07-31T01:20:10;7.68;;;4.60;;
16957;SDS011;8595;52.542;11.974;2023-07-31T01:22:45;7.82;;;5.00;;
16957;SDS011;8595;52.542;11.974;2023-07-31T01:25:29;9.00;;;4.90;;
16957;SDS011;8595;52.542;11.974;2023-07-31T01:28:13;8.30;;;5.10;;
16957;SDS011;8595;52.542;11.974;2023-07-31T01:30:43;7.65;;;5.30;;
16957;SDS011;8595;52.542;11.974;2023-07-31T01:33:13;17.08;;;7.50;;
16957;SDS011;8595;52.542;11.974;2023-07-31T01:35:43;12.07;;;5.78;;
16957;SDS011;8595;52.542;11.974;2023-07-31T01:38:11;9.35;;;5.82;;
16957;SDS011;8595;52.542;11.974;2023-07-31T01:40:40;10.32;;;5.32;;
16957;SDS011;8595;52.542;11.974;2023-07-31T01:43:09;8.13;;;5.40;;
16957;SDS011;8595;52.542;11.974;2023-07-31T01:45:36;7.15;;;4.82;;
16957;SDS011;8595;52.542;11.974;2023-07-31T01:48:03;7.07;;;5.45;;
16957;SDS011;8595;52.542;11.974;2023-07-31T01:50:30;10.30;;;6.40;;
16957;SDS011;8595;52.542;11.974;2023-07-31T01:52:57;9.48;;;4.53;;
16957;SDS011;8595;52.542;11.974;2023-07-31T01:55:24;6.63;;;4.28;;
16957;SDS011;8595;52.542;11.974;2023-07-31T01:57:52;7.60;;;5.32;;
16957;SDS011;8595;52.542;11.974;2023-07-31T02:00:20;10.02;;;4.68;;
16957;SDS011;8595;52.542;11.974;2023-07-31T02:02:47;6.53;;;4.63;;
16957;SDS011;8595;52.542;11.974;2023-07-31T02:05:14;7.50;;;4.55;;
16957;SDS011;8595;52.542;11.974;2023-07-31T02:07:41;9.45;;;5.03;;
16957;SDS011;8595;52.542;11.974;2023-07-31T02:10:08;9.10;;;4.82;;
16957;SDS011;8595;52.542;11.974;2023-07-31T02:12:35;8.00;;;4.53;;
16957;SDS011;8595;52.542;11.974;2023-07-31T02:15:02;10.45;;;4.95;;
16957;SDS011;8595;52.542;11.974;2023-07-31T02:17:30;11.70;;;4.68;;
16957;SDS011;8595;52.542;11.974;2023-07-31T02:19:57;5.72;;;4.18;;
16957;SDS011;8595;52.542;11.974;2023-07-31T02:22:24;7.93;;;4.65;;
16957;SDS011;8595;52.542;11.974;2023-07-31T02:24:50;7.78;;;5.15;;
16957;SDS011;8595;52.542;11.974;2023-07-31T02:27:17;10.23;;;5.00;;
16957;SDS011;8595;52.542;11.974;2023-07-31T02:29:44;5.25;;;4.38;;
16957;SDS011;8595;52.542;11.974;2023-07-31T02:32:11;6.72;;;4.63;;
16957;SDS011;8595;52.542;11.974;2023-07-31T02:34:39;6.25;;;4.32;;
16957;SDS011;8595;52.542;11.974;2023-07-31T02:37:06;9.38;;;4.40;;
16957;SDS011;8595;52.542;11.974;2023-07-31T02:39:33;8.32;;;4.32;;
16957;SDS011;8595;52.542;11.974;2023-07-31T02:41:59;6.68;;;4.60;;
16957;SDS011;8595;52.542;11.974;2023-07-31T02:44:26;9.60;;;4.65;;
16957;SDS011;8595;52.542;11.974;2023-07-31T02:46:53;6.00;;;4.57;;
16957;SDS011;8595;52.542;11.974;2023-07-31T02:49:20;7.25;;;5.20;;
16957;SDS011;8595;52.542;11.974;2023-07-31T02:51:48;9.05;;;5.53;;
16957;SDS011;8595;52.542;11.974;2023-07-31T02:54:15;8.07;;;6.22;;
16957;SDS011;8595;52.542;11.974;2023-07-31T02:56:42;11.25;;;6.57;;
16957;SDS011;8595;52.542;11.974;2023-07-31T02:59:08;8.38;;;5.53;;
16957;SDS011;8595;52.542;11.974;2023-07-31T03:01:35;7.70;;;4.65;;
16957;SDS011;8595;52.542;11.974;2023-07-31T03:04:02;10.40;;;5.15;;
16957;SDS011;8595;52.542;11.974;2023-07-31T03:06:29;10.38;;;6.55;;
16957;SDS011;8595;52.542;11.974;2023-07-31T03:08:57;10.57;;;6.90;;
16957;SDS011;8595;52.542;11.974;2023-07-31T03:11:24;13.80;;;6.47;;
16957;SDS011;8595;52.542;11.974;2023-07-31T03:13:51;7.80;;;5.90;;
16957;SDS011;8595;52.542;11.974;2023-07-31T03:16:19;9.05;;;6.13;;
16957;SDS011;8595;52.542;11.974;2023-07-31T03:18:45;13.43;;;7.82;;
16957;SDS011;8595;52.542;11.974;2023-07-31T03:21:12;8.80;;;6.25;;
16957;SDS011;8595;52.542;11.974;2023-07-31T03:23:40;12.38;;;7.50;;
16957;SDS011;8595;52.542;11.974;2023-07-31T03:26:09;10.32;;;6.47;;
16957;SDS011;8595;52.542;11.974;2023-07-31T03:28:36;8.23;;;6.07;;
16957;SDS011;8595;52.542;11.974;2023-07-31T03:31:03;11.20;;;7.00;;
16957;SDS011;8595;52.542;11.974;2023-07-31T03:33:30;10.48;;;5.80;;
16957;SDS011;8595;52.542;11.974;2023-07-31T03:35:57;6.97;;;5.90;;
16957;SDS011;8595;52.542;11.974;2023-07-31T03:38:24;12.25;;;7.78;;
16957;SDS011;8595;52.542;11.974;2023-07-31T03:40:50;9.82;;;6.65;;
16957;SDS011;8595;52.542;11.974;2023-07-31T03:43:19;8.10;;;7.22;;
16957;SDS011;8595;52.542;11.974;2023-07-31T03:45:45;8.27;;;6.03;;
16957;SDS011;8595;52.542;11.974;2023-07-31T03:48:14;8.98;;;6.63;;
16957;SDS011;8595;52.542;11.974;2023-07-31T03:50:41;13.20;;;7.30;;
16957;SDS011;8595;52.542;11.974;2023-07-31T03:53:08;10.50;;;6.60;;
16957;SDS011;8595;52.542;11.974;2023-07-31T03:55:35;8.32;;;6.32;;
16957;SDS011;8595;52.542;11.974;2023-07-31T03:58:02;10.20;;;6.70;;
16957;SDS011;8595;52.542;11.974;2023-07-31T04:00:30;10.68;;;6.40;;
16957;SDS011;8595;52.542;11.974;2023-07-31T04:02:57;7.38;;;5.13;;
16957;SDS011;8595;52.542;11.974;2023-07-31T04:05:24;12.23;;;6.18;;
16957;SDS011;8595;52.542;11.974;2023-07-31T04:07:50;6.35;;;5.05;;
16957;SDS011;8595;52.542;11.974;2023-07-31T04:10:17;11.25;;;5.60;;
16957;SDS011;8595;52.542;11.974;2023-07-31T04:12:44;8.80;;;5.07;;
16957;SDS011;8595;52.542;11.974;2023-07-31T04:15:11;9.15;;;5.75;;
16957;SDS011;8595;52.542;11.974;2023-07-31T04:17:39;8.90;;;5.28;;
16957;SDS011;8595;52.542;11.974;2023-07-31T04:20:06;9.45;;;5.57;;
16957;SDS011;8595;52.542;11.974;2023-07-31T04:22:33;11.90;;;5.85;;
16957;SDS011;8595;52.542;11.974;2023-07-31T04:25:00;8.63;;;5.78;;
16957;SDS011;8595;52.542;11.974;2023-07-31T04:27:27;9.30;;;5.47;;
16957;SDS011;8595;52.542;11.974;2023-07-31T04:29:54;9.75;;;6.10;;
16957;SDS011;8595;52.542;11.974;2023-07-31T04:32:20;8.35;;;4.95;;
16957;SDS011;8595;52.542;11.974;2023-07-31T04:34:49;8.13;;;5.75;;
16957;SDS011;8595;52.542;11.974;2023-07-31T04:37:16;6.50;;;5.40;;
16957;SDS011;8595;52.542;11.974;2023-07-31T04:39:42;10.02;;;5.72;;
16957;SDS011;8595;52.542;11.974;2023-07-31T04:42:09;6.75;;;5.28;;
16957;SDS011;8595;52.542;11.974;2023-07-31T04:44:36;6.85;;;5.10;;
16957;SDS011;8595;52.542;11.974;2023-07-31T04:47:03;7.22;;;5.53;;
16957;SDS011;8595;52.542;11.974;2023-07-31T04:49:30;8.50;;;5.78;;
16957;SDS011;8595;52.542;11.974;2023-07-31T04:51:58;10.27;;;5.68;;
16957;SDS011;8595;52.542;11.974;2023-07-31T04:54:25;7.70;;;5.90;;
16957;SDS011;8595;52.542;11.974;2023-07-31T04:56:52;10.20;;;5.70;;
16957;SDS011;8595;52.542;11.974;2023-07-31T04:59:19;7.90;;;5.50;;
16957;SDS011;8595;52.542;11.974;2023-07-31T05:01:45;6.68;;;5.40;;
16957;SDS011;8595;52.542;11.974;2023-07-31T05:04:12;11.05;;;5.43;;
16957;SDS011;8595;52.542;11.974;2023-07-31T05:06:40;6.88;;;4.88;;
16957;SDS011;8595;52.542;11.974;2023-07-31T05:09:08;8.15;;;5.03;;
16957;SDS011;8595;52.542;11.974;2023-07-31T05:11:35;8.65;;;5.70;;
16957;SDS011;8595;52.542;11.974;2023-07-31T05:14:02;5.88;;;4.72;;
16957;SDS011;8595;52.542;11.974;2023-07-31T05:16:29;8.70;;;5.60;;
16957;SDS011;8595;52.542;11.974;2023-07-31T05:18:56;8.20;;;4.00;;
16957;SDS011;8595;52.542;11.974;2023-07-31T05:21:23;8.57;;;4.40;;
16957;SDS011;8595;52.542;11.974;2023-07-31T05:23:50;7.72;;;4.43;;
16957;SDS011;8595;52.542;11.974;2023-07-31T05:26:18;8.27;;;4.13;;
16957;SDS011;8595;52.542;11.974;2023-07-31T05:28:45;6.85;;;4.07;;
16957;SDS011;8595;52.542;11.974;2023-07-31T05:31:11;8.65;;;4.20;;
16957;SDS011;8595;52.542;11.974;2023-07-31T05:33:38;7.28;;;4.00;;
16957;SDS011;8595;52.542;11.974;2023-07-31T05:36:05;5.65;;;3.92;;
16957;SDS011;8595;52.542;11.974;2023-07-31T05:38:32;4.82;;;4.20;;
16957;SDS011;8595;52.542;11.974;2023-07-31T05:40:59;8.15;;;3.85;;
16957;SDS011;8595;52.542;11.974;2023-07-31T05:43:27;6.05;;;3.90;;
16957;SDS011;8595;52.542;11.974;2023-07-31T05:45:54;9.95;;;4.53;;
16957;SDS011;8595;52.542;11.974;2023-07-31T05:48:21;6.05;;;3.63;;
16957;SDS011;8595;52.542;11.974;2023-07-31T05:50:48;4.30;;;3.33;;
16957;SDS011;8595;52.542;11.974;2023-07-31T05:53:14;5.60;;;3.88;;
16957;SDS011;8595;52.542;11.974;2023-07-31T05:55:41;4.32;;;3.65;;
16957;SDS011;8595;52.542;11.974;2023-07-31T05:58:08;7.13;;;3.95;;
16957;SDS011;8595;52.542;11.974;2023-07-31T06:00:36;7.00;;;3.47;;
16957;SDS011;8595;52.542;11.974;2023-07-31T06:03:03;5.03;;;3.92;;
16957;SDS011;8595;52.542;11.974;2023-07-31T06:05:30;5.80;;;3.00;;
16957;SDS011;8595;52.542;11.974;2023-07-31T06:07:57;4.90;;;3.47;;
16957;SDS011;8595;52.542;11.974;2023-07-31T06:10:24;5.05;;;3.22;;
16957;SDS011;8595;52.542;11.974;2023-07-31T06:12:51;3.40;;;3.10;;
16957;SDS011;8595;52.542;11.974;2023-07-31T06:15:17;4.57;;;2.67;;
16957;SDS011;8595;52.542;11.974;2023-07-31T06:17:46;2.90;;;2.53;;
16957;SDS011;8595;52.542;11.974;2023-07-31T06:20:13;2.85;;;2.50;;
16957;SDS011;8595;52.542;11.974;2023-07-31T06:22:40;4.97;;;2.30;;
16957;SDS011;8595;52.542;11.974;2023-07-31T06:25:07;2.78;;;2.33;;
16957;SDS011;8595;52.542;11.974;2023-07-31T06:27:34;3.88;;;3.17;;
16957;SDS011;8595;52.542;11.974;2023-07-31T06:30:01;4.45;;;2.50;;
16957;SDS011;8595;52.542;11.974;2023-07-31T06:32:28;4.18;;;2.00;;
16957;SDS011;8595;52.542;11.974;2023-07-31T06:34:56;2.28;;;2.00;;
16957;SDS011;8595;52.542;11.974;2023-07-31T06:37:23;4.03;;;2.05;;
16957;SDS011;8595;52.542;11.974;2023-07-31T06:39:50;3.95;;;2.10;;
16957;SDS011;8595;52.542;11.974;2023-07-31T06:42:16;7.63;;;2.75;;
16957;SDS011;8595;52.542;11.974;2023-07-31T06:44:43;2.47;;;1.70;;
16957;SDS011;8595;52.542;11.974;2023-07-31T06:47:10;4.38;;;1.90;;
16957;SDS011;8595;52.542;11.974;2023-07-31T06:49:37;1.80;;;1.58;;
16957;SDS011;8595;52.542;11.974;2023-07-31T06:52:05;2.38;;;1.90;;
16957;SDS011;8595;52.542;11.974;2023-07-31T06:54:32;1.80;;;1.70;;
16957;SDS011;8595;52.542;11.974;2023-07-31T06:56:59;4.07;;;2.05;;
16957;SDS011;8595;52.542;11.974;2023-07-31T06:59:26;2.00;;;1.65;;
16957;SDS011;8595;52.542;11.974;2023-07-31T07:01:52;2.00;;;1.80;;
16957;SDS011;8595;52.542;11.974;2023-07-31T07:04:20;3.35;;;2.17;;
16957;SDS011;8595;52.542;11.974;2023-07-31T07:06:47;2.05;;;1.80;;
16957;SDS011;8595;52.542;11.974;2023-07-31T07:09:15;2.40;;;1.70;;
16957;SDS011;8595;52.542;11.974;2023-07-31T07:11:41;2.67;;;1.73;;
16957;SDS011;8595;52.542;11.974;2023-07-31T07:14:09;5.80;;;1.73;;
16957;SDS011;8595;52.542;11.974;2023-07-31T07:16:36;2.13;;;1.80;;
16957;SDS011;8595;52.542;11.974;2023-07-31T07:19:02;4.32;;;1.60;;
16957;SDS011;8595;52.542;11.974;2023-07-31T07:21:29;1.85;;;1.70;;
16957;SDS011;8595;52.542;11.974;2023-07-31T07:23:56;2.08;;;1.90;;
16957;SDS011;8595;52.542;11.974;2023-07-31T07:26:24;4.97;;;1.90;;
16957;SDS011;8595;52.542;11.974;2023-07-31T07:28:51;2.20;;;1.90;;
16957;SDS011;8595;52.542;11.974;2023-07-31T07:31:18;2.28;;;1.70;;
16957;SDS011;8595;52.542;11.974;2023-07-31T07:33:44;4.28;;;2.00;;
16957;SDS011;8595;52.542;11.974;2023-07-31T07:36:11;2.28;;;2.08;;
16957;SDS011;8595;52.542;11.974;2023-07-31T07:38:38;4.22;;;2.63;;
16957;SDS011;8595;52.542;11.974;2023-07-31T07:41:06;4.45;;;1.92;;
16957;SDS011;8595;52.542;11.974;2023-07-31T07:43:34;2.85;;;2.00;;
16957;SDS011;8595;52.542;11.974;2023-07-31T07:46:01;3.88;;;2.17;;
16957;SDS011;8595;52.542;11.974;2023-07-31T07:48:28;2.00;;;1.80;;
16957;SDS011;8595;52.542;11.974;2023-07-31T07:50:54;4.38;;;2.13;;
16957;SDS011;8595;52.542;11.974;2023-07-31T07:53:21;3.00;;;1.95;;
16957;SDS011;8595;52.542;11.974;2023-07-31T07:55:48;3.58;;;1.80;;
16957;SDS011;8595;52.542;11.974;2023-07-31T07:58:15;2.35;;;1.85;;
16957;SDS011;8595;52.542;11.974;2023-07-31T08:00:43;2.42;;;1.90;;
16957;SDS011;8595;52.542;11.974;2023-07-31T08:03:14;2.33;;;1.90;;
16957;SDS011;8595;52.542;11.974;2023-07-31T08:05:42;2.50;;;2.08;;
16957;SDS011;8595;52.542;11.974;2023-07-31T08:08:08;2.53;;;1.88;;
16957;SDS011;8595;52.542;11.974;2023-07-31T08:10:40;1.70;;;1.60;;
16957;SDS011;8595;52.542;11.974;2023-07-31T08:13:06;2.88;;;2.00;;
16957;SDS011;8595;52.542;11.974;2023-07-31T08:15:33;2.67;;;2.08;;
16957;SDS011;8595;52.542;11.974;2023-07-31T08:18:01;2.33;;;2.13;;
16957;SDS011;8595;52.542;11.974;2023-07-31T08:20:28;3.65;;;2.08;;
16957;SDS011;8595;52.542;11.974;2023-07-31T08:22:55;3.45;;;1.98;;
16957;SDS011;8595;52.542;11.974;2023-07-31T08:25:23;1.88;;;1.75;;
16957;SDS011;8595;52.542;11.974;2023-07-31T08:27:50;3.00;;;1.88;;
16957;SDS011;8595;52.542;11.974;2023-07-31T08:30:18;1.85;;;1.67;;
16957;SDS011;8595;52.542;11.974;2023-07-31T08:32:45;2.85;;;2.10;;
16957;SDS011;8595;52.542;11.974;2023-07-31T08:35:13;3.33;;;1.50;;
16957;SDS011;8595;52.542;11.974;2023-07-31T08:37:40;3.63;;;2.00;;
16957;SDS011;8595;52.542;11.974;2023-07-31T08:40:07;2.35;;;1.70;;
16957;SDS011;8595;52.542;11.974;2023-07-31T08:42:42;1.75;;;1.65;;
16957;SDS011;8595;52.542;11.974;2023-07-31T08:45:11;3.85;;;1.83;;
16957;SDS011;8595;52.542;11.974;2023-07-31T08:47:40;2.58;;;1.88;;
16957;SDS011;8595;52.542;11.974;2023-07-31T08:50:08;3.40;;;2.53;;
16957;SDS011;8595;52.542;11.974;2023-07-31T08:52:38;1.67;;;1.58;;
16957;SDS011;8595;52.542;11.974;2023-07-31T08:55:05;2.25;;;1.90;;
16957;SDS011;8595;52.542;11.974;2023-07-31T08:57:35;2.28;;;2.00;;
16957;SDS011;8595;52.542;11.974;2023-07-31T09:00:04;4.75;;;2.33;;
16957;SDS011;8595;52.542;11.974;2023-07-31T09:02:35;4.68;;;2.58;;
16957;SDS011;8595;52.542;11.974;2023-07-31T09:05:07;3.15;;;2.20;;
16957;SDS011;8595;52.542;11.974;2023-07-31T09:07:35;5.10;;;2.55;;
16957;SDS011;8595;52.542;11.974;2023-07-31T09:10:03;2.92;;;2.35;;
16957;SDS011;8595;52.542;11.974;2023-07-31T09:12:31;4.95;;;3.35;;
16957;SDS011;8595;52.542;11.974;2023-07-31T09:14:58;8.13;;;3.13;;
16957;SDS011;8595;52.542;11.974;2023-07-31T09:17:28;4.80;;;2.95;;
16957;SDS011;8595;52.542;11.974;2023-07-31T09:19:56;6.97;;;3.42;;
16957;SDS011;8595;52.542;11.974;2023-07-31T09:22:30;4.53;;;3.30;;
16957;SDS011;8595;52.542;11.974;2023-07-31T09:25:05;6.03;;;3.50;;
16957;SDS011;8595;52.542;11.974;2023-07-31T09:27:45;5.53;;;3.45;;
16957;SDS011;8595;52.542;11.974;2023-07-31T09:30:13;3.45;;;3.15;;
16957;SDS011;8595;52.542;11.974;2023-07-31T09:32:40;5.95;;;3.63;;
16957;SDS011;8595;52.542;11.974;2023-07-31T09:37:55;6.35;;;5.00;;
16957;SDS011;8595;52.542;11.974;2023-07-31T09:40:29;7.50;;;4.25;;
16957;SDS011;8595;52.542;11.974;2023-07-31T09:42:56;6.30;;;4.40;;
16957;SDS011;8595;52.542;11.974;2023-07-31T09:45:24;8.07;;;4.75;;
16957;SDS011;8595;52.542;11.974;2023-07-31T09:47:53;8.30;;;4.90;;
16957;SDS011;8595;52.542;11.974;2023-07-31T09:50:20;10.20;;;5.28;;
16957;SDS011;8595;52.542;11.974;2023-07-31T09:52:48;8.35;;;4.55;;
16957;SDS011;8595;52.542;11.974;2023-07-31T09:55:15;9.93;;;5.00;;
16957;SDS011;8595;52.542;11.974;2023-07-31T09:57:44;11.02;;;5.65;;
16957;SDS011;8595;52.542;11.974;2023-07-31T10:00:13;10.00;;;5.82;;
16957;SDS011;8595;52.542;11.974;2023-07-31T10:02:41;7.35;;;5.43;;
16957;SDS011;8595;52.542;11.974;2023-07-31T10:05:12;9.45;;;5.80;;
16957;SDS011;8595;52.542;11.974;2023-07-31T10:07:42;8.93;;;5.82;;
16957;SDS011;8595;52.542;11.974;2023-07-31T10:10:11;16.08;;;7.13;;
16957;SDS011;8595;52.542;11.974;2023-07-31T10:12:39;11.27;;;5.95;;
16957;SDS011;8595;52.542;11.974;2023-07-31T10:15:09;11.93;;;6.13;;
16957;SDS011;8595;52.542;11.974;2023-07-31T10:17:37;13.70;;;6.80;;
16957;SDS011;8595;52.542;11.974;2023-07-31T10:20:05;13.15;;;6.32;;
16957;SDS011;8595;52.542;11.974;2023-07-31T10:22:33;13.60;;;5.68;;
16957;SDS011;8595;52.542;11.974;2023-07-31T10:25:01;14.32;;;6.93;;
16957;SDS011;8595;52.542;11.974;2023-07-31T10:27:28;8.50;;;6.00;;
16957;SDS011;8595;52.542;11.974;2023-07-31T10:29:56;17.38;;;7.75;;
16957;SDS011;8595;52.542;11.974;2023-07-31T10:32:27;7.75;;;5.47;;
16957;SDS011;8595;52.542;11.974;2023-07-31T10:34:57;11.15;;;6.38;;
16957;SDS011;8595;52.542;11.974;2023-07-31T10:37:26;12.18;;;6.45;;
16957;SDS011;8595;52.542;11.974;2023-07-31T10:39:59;11.65;;;6.63;;
16957;SDS011;8595;52.542;11.974;2023-07-31T10:42:31;9.43;;;5.78;;
16957;SDS011;8595;52.542;11.974;2023-07-31T10:45:02;8.68;;;5.63;;
16957;SDS011;8595;52.542;11.974;2023-07-31T10:47:32;10.32;;;6.28;;
16957;SDS011;8595;52.542;11.974;2023-07-31T10:50:14;11.88;;;6.30;;
16957;SDS011;8595;52.542;11.974;2023-07-31T10:52:49;13.63;;;6.55;;
16957;SDS011;8595;52.542;11.974;2023-07-31T10:55:25;8.90;;;5.38;;
16957;SDS011;8595;52.542;11.974;2023-07-31T10:57:57;11.48;;;5.30;;
16957;SDS011;8595;52.542;11.974;2023-07-31T11:00:33;7.20;;;5.00;;
16957;SDS011;8595;52.542;11.974;2023-07-31T11:03:05;6.55;;;4.32;;
16957;SDS011;8595;52.542;11.974;2023-07-31T11:05:42;6.97;;;5.10;;
16957;SDS011;8595;52.542;11.974;2023-07-31T11:08:11;8.98;;;5.35;;
16957;SDS011;8595;52.542;11.974;2023-07-31T11:10:44;8.20;;;4.90;;
16957;SDS011;8595;52.542;11.974;2023-07-31T11:13:12;9.02;;;4.60;;
16957;SDS011;8595;52.542;11.974;2023-07-31T11:15:39;6.38;;;5.35;;
16957;SDS011;8595;52.542;11.974;2023-07-31T11:18:07;6.85;;;4.22;;
16957;SDS011;8595;52.542;11.974;2023-07-31T11:20:36;6.53;;;4.05;;
16957;SDS011;8595;52.542;11.974;2023-07-31T11:23:05;8.27;;;4.57;;
16957;SDS011;8595;52.542;11.974;2023-07-31T11:25:34;7.95;;;4.57;;
16957;SDS011;8595;52.542;11.974;2023-07-31T11:28:02;7.75;;;4.68;;
16957;SDS011;8595;52.542;11.974;2023-07-31T11:30:33;8.05;;;4.82;;
16957;SDS011;8595;52.542;11.974;2023-07-31T11:33:01;10.95;;;4.63;;
16957;SDS011;8595;52.542;11.974;2023-07-31T11:35:30;7.45;;;4.80;;
16957;SDS011;8595;52.542;11.974;2023-07-31T11:37:58;8.10;;;4.07;;
16957;SDS011;8595;52.542;11.974;2023-07-31T11:40:26;9.30;;;5.38;;
16957;SDS011;8595;52.542;11.974;2023-07-31T11:42:55;9.48;;;5.20;;
16957;SDS011;8595;52.542;11.974;2023-07-31T11:45:24;9.00;;;4.93;;
16957;SDS011;8595;52.542;11.974;2023-07-31T11:47:53;6.82;;;4.93;;
16957;SDS011;8595;52.542;11.974;2023-07-31T11:50:22;9.75;;;5.78;;
16957;SDS011;8595;52.542;11.974;2023-07-31T11:52:52;14.07;;;5.15;;
16957;SDS011;8595;52.542;11.974;2023-07-31T11:55:22;13.68;;;5.78;;
16957;SDS011;8595;52.542;11.974;2023-07-31T11:57:50;11.02;;;5.18;;
16957;SDS011;8595;52.542;11.974;2023-07-31T12:00:18;9.00;;;4.65;;
16957;SDS011;8595;52.542;11.974;2023-07-31T12:02:45;8.88;;;4.45;;
16957;SDS011;8595;52.542;11.974;2023-07-31T12:05:13;9.10;;;5.50;;
16957;SDS011;8595;52.542;11.974;2023-07-31T12:07:44;10.27;;;4.68;;
16957;SDS011;8595;52.542;11.974;2023-07-31T12:10:25;7.47;;;4.70;;
16957;SDS011;8595;52.542;11.974;2023-07-31T12:12:58;9.00;;;4.55;;
16957;SDS011;8595;52.542;11.974;2023-07-31T12:15:29;9.48;;;4.32;;
16957;SDS011;8595;52.542;11.974;2023-07-31T12:17:58;5.82;;;4.30;;
16957;SDS011;8595;52.542;11.974;2023-07-31T12:20:25;7.43;;;4.00;;
16957;SDS011;8595;52.542;11.974;2023-07-31T12:22:52;9.70;;;4.07;;
16957;SDS011;8595;52.542;11.974;2023-07-31T12:25:25;6.47;;;4.82;;
16957;SDS011;8595;52.542;11.974;2023-07-31T12:27:55;12.32;;;4.93;;
16957;SDS011;8595;52.542;11.974;2023-07-31T12:30:28;8.35;;;4.78;;
16957;SDS011;8595;52.542;11.974;2023-07-31T12:32:55;9.30;;;4.60;;
16957;SDS011;8595;52.542;11.974;2023-07-31T12:35:22;9.90;;;4.50;;
16957;SDS011;8595;52.542;11.974;2023-07-31T12:37:49;6.20;;;3.85;;
16957;SDS011;8595;52.542;11.974;2023-07-31T12:40:16;6.10;;;3.75;;
16957;SDS011;8595;52.542;11.974;2023-07-31T12:42:44;5.57;;;4.00;;
16957;SDS011;8595;52.542;11.974;2023-07-31T12:45:11;7.25;;;4.18;;
16957;SDS011;8595;52.542;11.974;2023-07-31T12:47:38;4.75;;;3.53;;
16957;SDS011;8595;52.542;11.974;2023-07-31T12:50:05;6.15;;;3.55;;
16957;SDS011;8595;52.542;11.974;2023-07-31T12:52:33;4.97;;;3.60;;
16957;SDS011;8595;52.542;11.974;2023-07-31T12:55:00;4.45;;;3.78;;
16957;SDS011;8595;52.542;11.974;2023-07-31T12:57:27;6.57;;;3.67;;
16957;SDS011;8595;52.542;11.974;2023-07-31T12:59:55;4.03;;;3.30;;
16957;SDS011;8595;52.542;11.974;2023-07-31T13:02:22;5.72;;;3.40;;
16957;SDS011;8595;52.542;11.974;2023-07-31T13:04:49;5.50;;;3.08;;
16957;SDS011;8595;52.542;11.974;2023-07-31T13:07:16;6.05;;;3.08;;
16957;SDS011;8595;52.542;11.974;2023-07-31T13:09:43;3.50;;;3.03;;
16957;SDS011;8595;52.542;11.974;2023-07-31T13:12:10;5.97;;;3.30;;
16957;SDS011;8595;52.542;11.974;2023-07-31T13:14:36;5.88;;;3.65;;
16957;SDS011;8595;52.542;11.974;2023-07-31T13:17:05;4.20;;;3.45;;
16957;SDS011;8595;52.542;11.974;2023-07-31T13:19:31;3.17;;;2.78;;
16957;SDS011;8595;52.542;11.974;2023-07-31T13:21:58;5.85;;;3.53;;
16957;SDS011;8595;52.542;11.974;2023-07-31T13:24:25;7.93;;;3.67;;
16957;SDS011;8595;52.542;11.974;2023-07-31T13:26:52;5.20;;;3.08;;
16957;SDS011;8595;52.542;11.974;2023-07-31T13:29:19;4.03;;;3.28;;
16957;SDS011;8595;52.542;11.974;2023-07-31T13:31:46;5.22;;;3.38;;
16957;SDS011;8595;52.542;11.974;2023-07-31T13:34:15;5.68;;;3.65;;
16957;SDS011;8595;52.542;11.974;2023-07-31T13:36:41;5.10;;;3.85;;
16957;SDS011;8595;52.542;11.974;2023-07-31T13:39:08;6.65;;;3.25;;
16957;SDS011;8595;52.542;11.974;2023-07-31T13:41:35;5.93;;;3.40;;
16957;SDS011;8595;52.542;11.974;2023-07-31T13:44:02;6.82;;;3.65;;
16957;SDS011;8595;52.542;11.974;2023-07-31T13:46:29;5.47;;;2.92;;
16957;SDS011;8595;52.542;11.974;2023-07-31T13:48:57;4.18;;;2.95;;
16957;SDS011;8595;52.542;11.974;2023-07-31T13:51:27;3.90;;;3.22;;
16957;SDS011;8595;52.542;11.974;2023-07-31T13:53:54;4.43;;;2.97;;
16957;SDS011;8595;52.542;11.974;2023-07-31T13:56:20;5.63;;;2.95;;
16957;SDS011;8595;52.542;11.974;2023-07-31T13:58:47;4.07;;;2.80;;
16957;SDS011;8595;52.542;11.974;2023-07-31T14:01:14;3.65;;;2.78;;
16957;SDS011;8595;52.542;11.974;2023-07-31T14:03:41;4.07;;;3.25;;
16957;SDS011;8595;52.542;11.974;2023-07-31T14:06:08;7.72;;;3.72;;
16957;SDS011;8595;52.542;11.974;2023-07-31T14:08:36;4.55;;;3.42;;
16957;SDS011;8595;52.542;11.974;2023-07-31T14:11:03;6.68;;;4.30;;
16957;SDS011;8595;52.542;11.974;2023-07-31T14:13:29;4.97;;;3.65;;
16957;SDS011;8595;52.542;11.974;2023-07-31T14:15:56;6.85;;;3.55;;
16957;SDS011;8595;52.542;11.974;2023-07-31T14:18:23;5.13;;;3.70;;
16957;SDS011;8595;52.542;11.974;2023-07-31T14:20:50;6.68;;;4.18;;
16957;SDS011;8595;52.542;11.974;2023-07-31T14:23:18;8.25;;;3.90;;
16957;SDS011;8595;52.542;11.974;2023-07-31T14:25:46;5.80;;;3.50;;
16957;SDS011;8595;52.542;11.974;2023-07-31T14:28:13;6.15;;;3.90;;
16957;SDS011;8595;52.542;11.974;2023-07-31T14:30:40;7.35;;;3.38;;
16957;SDS011;8595;52.542;11.974;2023-07-31T14:33:07;3.95;;;2.92;;
16957;SDS011;8595;52.542;11.974;2023-07-31T14:35:34;5.45;;;4.22;;
16957;SDS011;8595;52.542;11.974;2023-07-31T14:38:01;6.93;;;3.40;;
16957;SDS011;8595;52.542;11.974;2023-07-31T14:40:28;6.25;;;2.85;;
16957;SDS011;8595;52.542;11.974;2023-07-31T14:42:56;4.43;;;3.05;;
16957;SDS011;8595;52.542;11.974;2023-07-31T14:45:23;4.28;;;3.50;;
16957;SDS011;8595;52.542;11.974;2023-07-31T14:47:50;7.97;;;4.20;;
16957;SDS011;8595;52.542;11.974;2023-07-31T14:50:17;5.20;;;3.60;;
16957;SDS011;8595;52.542;11.974;2023-07-31T14:52:46;7.05;;;4.72;;